aviador You're here:

ZSSS Decoded Metar

SHANGHAI in CHINA
Report Time2018-01-19 17:00:00
UTC Time2018-01-19 17:14:09
Flight Rules ifr IFR
WindCalm
Visibility4000 m
Phenomena:Mist
Clouds:Broken 015 Hf
Expected CloudBase > 1,600 ft AGL from Temp-Dew spread
Ceiling1,500 ft
Temp09°C (ISA -6)
Dew Point05°C (76% RH)
AAT7.9°C
QNH1023 hPa
Density Alt-912 ft
Elevation23 ft
Report Wrong Elevation
Raw Report
ZSSS 191700Z 00000MPS 4000 BR BKN015 09/05 Q1023 NOSIG=

Extra information for ZSSS:More info

Metar Taf Metar & Taf Last 4 Metars F.Rules Stats Wind Profile Meteogram Temp Stats Airport Information Weather charts Add Link Nearby VenuesMetar ALERT Operation Metar Decoded Social comments